Terminal Aerodrome Forecast
Issued by NWS Omaha/Valley, NE

Home | Current Version | Previous Version | Text Only | Print | Product List | Glossary On
Versions: 1 2 3 4 5 6 7 8 9 10 11 12 13 14 15 16 17 18 19 20 21 22 23 24 25 26 27 28 29 30 31 32 33 34 35 36 37 38 39 40 41 42 43 44 45
000
FTUS43 KOAX 080520
TAFOFK
TAF
KOFK 080520Z 0806/0906 VRB03KT P6SM SCT250
      TEMPO 0810/0813 4SM BR
     FM081800 16005KT P6SM BKN250
     FM090000 16005KT P6SM OVC150=

USA.gov is the U.S. government's official web portal to all federal, state and local government web resources and services.